sensor_id;sensor_type;location;lat;lon;timestamp;pressure;altitude;pressure_sealevel;temperature;humidity
56811;BME280;42691;47.234;27.494;2023-02-18T00:00:21;99358.34;;;13.33;100.00
56811;BME280;42691;47.234;27.494;2023-02-18T00:02:48;99355.81;;;13.32;100.00
56811;BME280;42691;47.234;27.494;2023-02-18T00:05:14;99362.94;;;13.30;100.00
56811;BME280;42691;47.234;27.494;2023-02-18T00:07:40;99361.88;;;13.32;100.00
56811;BME280;42691;47.234;27.494;2023-02-18T00:10:08;99349.53;;;13.22;100.00
56811;BME280;42691;47.234;27.494;2023-02-18T00:12:34;99382.78;;;13.32;100.00
56811;BME280;42691;47.234;27.494;2023-02-18T00:14:59;99381.94;;;13.32;100.00
56811;BME280;42691;47.234;27.494;2023-02-18T00:17:25;99381.00;;;13.33;100.00
56811;BME280;42691;47.234;27.494;2023-02-18T00:19:50;99387.81;;;13.35;100.00
56811;BME280;42691;47.234;27.494;2023-02-18T00:22:15;99384.38;;;13.35;100.00
56811;BME280;42691;47.234;27.494;2023-02-18T00:24:41;99382.25;;;13.27;100.00
56811;BME280;42691;47.234;27.494;2023-02-18T00:27:06;99384.56;;;13.32;100.00
56811;BME280;42691;47.234;27.494;2023-02-18T00:29:32;99384.66;;;13.30;100.00
56811;BME280;42691;47.234;27.494;2023-02-18T00:31:57;99382.16;;;13.29;100.00
56811;BME280;42691;47.234;27.494;2023-02-18T00:34:23;99371.91;;;13.26;100.00
56811;BME280;42691;47.234;27.494;2023-02-18T00:36:49;99373.03;;;13.22;100.00
56811;BME280;42691;47.234;27.494;2023-02-18T00:39:14;99360.53;;;13.12;100.00
56811;BME280;42691;47.234;27.494;2023-02-18T00:41:40;99365.19;;;13.22;100.00
56811;BME280;42691;47.234;27.494;2023-02-18T00:44:06;99352.59;;;13.14;100.00
56811;BME280;42691;47.234;27.494;2023-02-18T00:46:32;99354.94;;;13.19;100.00
56811;BME280;42691;47.234;27.494;2023-02-18T00:48:57;99354.19;;;13.17;100.00
56811;BME280;42691;47.234;27.494;2023-02-18T00:51:24;99359.41;;;13.17;100.00
56811;BME280;42691;47.234;27.494;2023-02-18T00:53:50;99351.56;;;13.17;100.00
56811;BME280;42691;47.234;27.494;2023-02-18T00:56:15;99334.72;;;13.08;100.00
56811;BME280;42691;47.234;27.494;2023-02-18T00:58:41;99350.81;;;13.14;100.00
56811;BME280;42691;47.234;27.494;2023-02-18T01:01:07;99337.97;;;13.11;100.00
56811;BME280;42691;47.234;27.494;2023-02-18T01:03:35;99332.31;;;13.05;100.00
56811;BME280;42691;47.234;27.494;2023-02-18T01:06:01;99327.91;;;13.05;100.00
56811;BME280;42691;47.234;27.494;2023-02-18T01:08:26;99321.00;;;13.04;100.00
56811;BME280;42691;47.234;27.494;2023-02-18T01:10:55;99311.50;;;13.03;100.00
56811;BME280;42691;47.234;27.494;2023-02-18T01:13:21;99311.50;;;13.03;100.00
56811;BME280;42691;47.234;27.494;2023-02-18T01:15:47;99288.94;;;13.02;100.00
56811;BME280;42691;47.234;27.494;2023-02-18T01:18:13;99294.06;;;13.04;100.00
56811;BME280;42691;47.234;27.494;2023-02-18T01:20:40;99272.06;;;12.94;100.00
56811;BME280;42691;47.234;27.494;2023-02-18T01:23:07;99286.13;;;13.05;100.00
56811;BME280;42691;47.234;27.494;2023-02-18T01:25:33;99279.88;;;13.08;100.00
56811;BME280;42691;47.234;27.494;2023-02-18T01:27:58;99275.69;;;13.05;100.00
56811;BME280;42691;47.234;27.494;2023-02-18T01:30:24;99263.56;;;13.04;100.00
56811;BME280;42691;47.234;27.494;2023-02-18T01:32:50;99258.34;;;13.04;100.00
56811;BME280;42691;47.234;27.494;2023-02-18T01:35:18;99254.78;;;13.05;100.00
56811;BME280;42691;47.234;27.494;2023-02-18T01:37:44;99248.63;;;13.06;100.00
56811;BME280;42691;47.234;27.494;2023-02-18T01:40:13;99222.91;;;13.00;100.00
56811;BME280;42691;47.234;27.494;2023-02-18T01:42:39;99232.03;;;13.07;100.00
56811;BME280;42691;47.234;27.494;2023-02-18T01:45:50;99226.41;;;13.13;100.00
56811;BME280;42691;47.234;27.494;2023-02-18T01:48:20;99227.91;;;13.18;100.00
56811;BME280;42691;47.234;27.494;2023-02-18T01:50:50;99216.16;;;13.10;100.00
56811;BME280;42691;47.234;27.494;2023-02-18T01:53:21;99221.84;;;13.17;100.00
56811;BME280;42691;47.234;27.494;2023-02-18T01:55:48;99224.34;;;13.19;100.00
56811;BME280;42691;47.234;27.494;2023-02-18T01:58:14;99225.47;;;13.14;100.00
56811;BME280;42691;47.234;27.494;2023-02-18T02:00:40;99223.06;;;13.11;100.00
56811;BME280;42691;47.234;27.494;2023-02-18T02:03:05;99214.47;;;13.09;100.00
56811;BME280;42691;47.234;27.494;2023-02-18T02:05:32;99223.16;;;13.10;100.00
56811;BME280;42691;47.234;27.494;2023-02-18T02:08:00;99216.66;;;13.03;100.00
56811;BME280;42691;47.234;27.494;2023-02-18T02:13:16;99200.91;;;13.04;100.00
56811;BME280;42691;47.234;27.494;2023-02-18T02:15:52;99219.06;;;13.06;100.00
56811;BME280;42691;47.234;27.494;2023-02-18T02:42:29;99197.56;;;13.15;100.00
56811;BME280;42691;47.234;27.494;2023-02-18T02:46:02;99185.28;;;13.17;100.00
56811;BME280;42691;47.234;27.494;2023-02-18T02:50:51;99176.41;;;13.20;100.00
56811;BME280;42691;47.234;27.494;2023-02-18T02:53:22;99181.72;;;13.18;100.00
56811;BME280;42691;47.234;27.494;2023-02-18T02:55:49;99179.19;;;13.17;100.00
56811;BME280;42691;47.234;27.494;2023-02-18T02:58:16;99186.28;;;13.14;100.00
56811;BME280;42691;47.234;27.494;2023-02-18T03:03:50;99181.06;;;13.14;100.00
56811;BME280;42691;47.234;27.494;2023-02-18T03:07:02;99179.28;;;13.15;100.00
56811;BME280;42691;47.234;27.494;2023-02-18T03:09:54;99182.09;;;13.12;100.00
56811;BME280;42691;47.234;27.494;2023-02-18T03:15:04;99181.06;;;13.14;100.00
56811;BME280;42691;47.234;27.494;2023-02-18T03:20:36;99182.00;;;13.13;100.00
56811;BME280;42691;47.234;27.494;2023-02-18T03:23:06;99182.75;;;13.15;100.00
56811;BME280;42691;47.234;27.494;2023-02-18T03:25:36;99182.75;;;13.15;100.00
56811;BME280;42691;47.234;27.494;2023-02-18T03:28:18;99168.84;;;13.15;100.00
56811;BME280;42691;47.234;27.494;2023-02-18T03:30:49;99178.44;;;13.14;100.00
56811;BME280;42691;47.234;27.494;2023-02-18T03:33:24;99183.50;;;13.18;100.00
56811;BME280;42691;47.234;27.494;2023-02-18T03:35:52;99175.75;;;13.16;100.00
56811;BME280;42691;47.234;27.494;2023-02-18T03:38:35;99176.78;;;13.13;100.00
56811;BME280;42691;47.234;27.494;2023-02-18T03:41:03;99180.13;;;13.15;100.00
56811;BME280;42691;47.234;27.494;2023-02-18T03:43:29;99169.69;;;13.15;100.00
56811;BME280;42691;47.234;27.494;2023-02-18T03:45:55;99171.44;;;13.15;100.00
56811;BME280;42691;47.234;27.494;2023-02-18T03:48:21;99171.44;;;13.15;100.00
56811;BME280;42691;47.234;27.494;2023-02-18T03:50:47;99164.56;;;13.14;100.00
56811;BME280;42691;47.234;27.494;2023-02-18T03:53:12;99171.34;;;13.17;100.00
56811;BME280;42691;47.234;27.494;2023-02-18T03:55:38;99180.06;;;13.17;100.00
56811;BME280;42691;47.234;27.494;2023-02-18T03:58:03;99176.50;;;13.18;100.00
56811;BME280;42691;47.234;27.494;2023-02-18T04:00:29;99170.50;;;13.16;100.00
56811;BME280;42691;47.234;27.494;2023-02-18T04:02:54;99156.44;;;13.19;100.00
56811;BME280;42691;47.234;27.494;2023-02-18T04:05:20;99154.94;;;13.14;100.00
56811;BME280;42691;47.234;27.494;2023-02-18T04:07:45;99161.56;;;13.20;100.00
56811;BME280;42691;47.234;27.494;2023-02-18T04:10:10;99172.13;;;13.19;100.00
56811;BME280;42691;47.234;27.494;2023-02-18T04:12:36;99165.84;;;13.21;100.00
56811;BME280;42691;47.234;27.494;2023-02-18T04:15:01;99149.34;;;13.21;100.00
56811;BME280;42691;47.234;27.494;2023-02-18T04:17:27;99148.09;;;13.26;100.00
56811;BME280;42691;47.234;27.494;2023-02-18T04:19:52;99144.63;;;13.26;100.00
56811;BME280;42691;47.234;27.494;2023-02-18T04:22:18;99142.03;;;13.26;100.00
56811;BME280;42691;47.234;27.494;2023-02-18T04:24:43;99139.31;;;13.27;100.00
56811;BME280;42691;47.234;27.494;2023-02-18T04:27:08;99136.81;;;13.26;100.00
56811;BME280;42691;47.234;27.494;2023-02-18T04:29:34;99126.56;;;13.23;100.00
56811;BME280;42691;47.234;27.494;2023-02-18T04:31:59;99128.25;;;13.24;100.00
56811;BME280;42691;47.234;27.494;2023-02-18T04:34:25;99112.56;;;13.24;100.00
56811;BME280;42691;47.234;27.494;2023-02-18T04:36:50;99118.72;;;13.23;100.00
56811;BME280;42691;47.234;27.494;2023-02-18T04:39:16;99104.38;;;13.15;100.00
56811;BME280;42691;47.234;27.494;2023-02-18T04:41:41;99111.09;;;13.20;100.00
56811;BME280;42691;47.234;27.494;2023-02-18T04:44:07;99111.09;;;13.20;100.00
56811;BME280;42691;47.234;27.494;2023-02-18T04:46:32;99110.16;;;13.21;100.00
56811;BME280;42691;47.234;27.494;2023-02-18T04:48:58;99103.78;;;13.25;100.00
56811;BME280;42691;47.234;27.494;2023-02-18T04:51:23;99103.78;;;13.25;100.00
56811;BME280;42691;47.234;27.494;2023-02-18T04:53:49;99096.75;;;13.12;100.00
56811;BME280;42691;47.234;27.494;2023-02-18T04:56:14;99109.75;;;13.27;100.00
56811;BME280;42691;47.234;27.494;2023-02-18T04:58:40;99106.50;;;13.23;100.00
56811;BME280;42691;47.234;27.494;2023-02-18T05:01:05;99109.00;;;13.25;100.00
56811;BME280;42691;47.234;27.494;2023-02-18T05:03:31;99105.22;;;13.16;100.00
56811;BME280;42691;47.234;27.494;2023-02-18T05:05:57;99116.31;;;13.20;100.00
56811;BME280;42691;47.234;27.494;2023-02-18T05:08:22;99112.88;;;13.19;100.00
56811;BME280;42691;47.234;27.494;2023-02-18T05:10:48;99112.78;;;13.21;100.00
56811;BME280;42691;47.234;27.494;2023-02-18T05:13:13;99114.44;;;13.22;100.00
56811;BME280;42691;47.234;27.494;2023-02-18T05:15:39;99112.78;;;13.21;100.00
56811;BME280;42691;47.234;27.494;2023-02-18T05:18:04;99095.22;;;13.23;100.00
56811;BME280;42691;47.234;27.494;2023-02-18T05:20:30;99095.94;;;13.25;100.00
56811;BME280;42691;47.234;27.494;2023-02-18T05:22:56;99091.88;;;13.21;100.00
56811;BME280;42691;47.234;27.494;2023-02-18T05:25:21;99099.28;;;13.27;100.00
56811;BME280;42691;47.234;27.494;2023-02-18T05:27:46;99100.75;;;13.31;100.00
56811;BME280;42691;47.234;27.494;2023-02-18T05:30:12;99101.69;;;13.30;100.00
56811;BME280;42691;47.234;27.494;2023-02-18T05:32:38;99093.97;;;13.28;100.00
56811;BME280;42691;47.234;27.494;2023-02-18T05:35:04;99101.91;;;13.27;100.00
56811;BME280;42691;47.234;27.494;2023-02-18T05:37:29;99102.75;;;13.27;100.00
56811;BME280;42691;47.234;27.494;2023-02-18T05:39:55;99111.63;;;13.25;100.00
56811;BME280;42691;47.234;27.494;2023-02-18T05:42:20;99116.84;;;13.25;100.00
56811;BME280;42691;47.234;27.494;2023-02-18T05:44:47;99114.56;;;13.20;100.00
56811;BME280;42691;47.234;27.494;2023-02-18T05:47:12;99123.22;;;13.21;100.00
56811;BME280;42691;47.234;27.494;2023-02-18T05:49:39;99121.34;;;13.23;100.00
56811;BME280;42691;47.234;27.494;2023-02-18T05:52:06;99121.22;;;13.24;100.00
56811;BME280;42691;47.234;27.494;2023-02-18T05:54:32;99121.13;;;13.26;100.00
56811;BME280;42691;47.234;27.494;2023-02-18T05:56:58;99119.25;;;13.28;100.00
56811;BME280;42691;47.234;27.494;2023-02-18T05:59:24;99098.56;;;13.25;100.00
56811;BME280;42691;47.234;27.494;2023-02-18T06:01:50;99110.03;;;13.35;100.00
56811;BME280;42691;47.234;27.494;2023-02-18T06:04:15;99102.75;;;13.40;100.00
56811;BME280;42691;47.234;27.494;2023-02-18T06:06:41;99098.25;;;13.42;100.00
56811;BME280;42691;47.234;27.494;2023-02-18T06:09:07;99100.88;;;13.42;100.00
56811;BME280;42691;47.234;27.494;2023-02-18T06:11:33;99106.94;;;13.42;100.00
56811;BME280;42691;47.234;27.494;2023-02-18T06:13:59;99106.09;;;13.42;100.00
56811;BME280;42691;47.234;27.494;2023-02-18T06:16:25;99112.78;;;13.46;100.00
56811;BME280;42691;47.234;27.494;2023-02-18T06:18:51;99107.25;;;13.51;100.00
56811;BME280;42691;47.234;27.494;2023-02-18T06:21:17;99106.41;;;13.50;100.00
56811;BME280;42691;47.234;27.494;2023-02-18T06:23:42;99097.63;;;13.51;100.00
56811;BME280;42691;47.234;27.494;2023-02-18T06:26:08;99083.00;;;13.49;100.00
56811;BME280;42691;47.234;27.494;2023-02-18T06:28:33;99090.19;;;13.58;100.00
56811;BME280;42691;47.234;27.494;2023-02-18T06:30:59;99089.34;;;13.57;100.00
56811;BME280;42691;47.234;27.494;2023-02-18T06:33:24;99091.03;;;13.58;100.00
56811;BME280;42691;47.234;27.494;2023-02-18T06:36:16;99092.47;;;13.62;100.00
56811;BME280;42691;47.234;27.494;2023-02-18T06:38:43;99085.78;;;13.58;100.00
56811;BME280;42691;47.234;27.494;2023-02-18T06:41:10;99104.38;;;13.66;100.00
56811;BME280;42691;47.234;27.494;2023-02-18T06:43:36;99097.38;;;13.67;100.00
56811;BME280;42691;47.234;27.494;2023-02-18T06:46:02;99102.28;;;13.71;100.00
56811;BME280;42691;47.234;27.494;2023-02-18T06:48:28;99090.38;;;13.67;100.00
56811;BME280;42691;47.234;27.494;2023-02-18T06:50:54;99085.13;;;13.67;100.00
56811;BME280;42691;47.234;27.494;2023-02-18T06:53:19;99106.03;;;13.80;100.00
56811;BME280;42691;47.234;27.494;2023-02-18T06:55:46;99107.16;;;13.89;100.00
56811;BME280;42691;47.234;27.494;2023-02-18T06:58:12;99102.16;;;13.86;100.00
56811;BME280;42691;47.234;27.494;2023-02-18T07:00:38;99104.78;;;13.86;100.00
56811;BME280;42691;47.234;27.494;2023-02-18T07:03:04;99094.31;;;13.86;100.00
56811;BME280;42691;47.234;27.494;2023-02-18T07:05:30;99100.28;;;13.88;100.00
56811;BME280;42691;47.234;27.494;2023-02-18T07:07:55;99101.09;;;13.88;100.00
56811;BME280;42691;47.234;27.494;2023-02-18T07:10:21;99086.03;;;13.92;100.00
56811;BME280;42691;47.234;27.494;2023-02-18T07:12:46;99093.88;;;13.92;100.00
56811;BME280;42691;47.234;27.494;2023-02-18T07:15:12;99089.38;;;13.94;100.00
56811;BME280;42691;47.234;27.494;2023-02-18T07:17:37;99092.00;;;13.94;100.00
56811;BME280;42691;47.234;27.494;2023-02-18T07:20:04;99091.25;;;13.92;100.00
56811;BME280;42691;47.234;27.494;2023-02-18T07:22:30;99085.94;;;13.93;100.00
56811;BME280;42691;47.234;27.494;2023-02-18T07:24:56;99091.78;;;13.97;100.00
56811;BME280;42691;47.234;27.494;2023-02-18T07:27:21;99084.97;;;13.94;100.00
56811;BME280;42691;47.234;27.494;2023-02-18T07:29:47;99066.28;;;13.88;100.00
56811;BME280;42691;47.234;27.494;2023-02-18T07:32:14;99091.31;;;14.03;100.00
56811;BME280;42691;47.234;27.494;2023-02-18T07:34:40;99103.47;;;14.04;100.00
56811;BME280;42691;47.234;27.494;2023-02-18T07:37:06;99085.88;;;14.06;100.00
56811;BME280;42691;47.234;27.494;2023-02-18T07:39:39;99090.78;;;14.11;100.00
56811;BME280;42691;47.234;27.494;2023-02-18T07:42:04;99082.72;;;14.14;100.00
56811;BME280;42691;47.234;27.494;2023-02-18T07:44:30;99083.84;;;14.22;100.00
56811;BME280;42691;47.234;27.494;2023-02-18T07:46:56;99079.81;;;14.29;100.00
56811;BME280;42691;47.234;27.494;2023-02-18T07:49:22;99075.78;;;14.25;100.00
56811;BME280;42691;47.234;27.494;2023-02-18T07:51:48;99082.94;;;14.34;100.00
56811;BME280;42691;47.234;27.494;2023-02-18T07:54:14;99076.75;;;14.35;100.00
56811;BME280;42691;47.234;27.494;2023-02-18T07:56:39;99080.31;;;14.34;100.00
56811;BME280;42691;47.234;27.494;2023-02-18T07:59:06;99083.66;;;14.36;100.00
56811;BME280;42691;47.234;27.494;2023-02-18T08:01:31;99080.63;;;14.43;100.00
56811;BME280;42691;47.234;27.494;2023-02-18T08:03:56;99079.25;;;14.50;100.00
56811;BME280;42691;47.234;27.494;2023-02-18T08:06:27;99081.41;;;14.56;100.00
56811;BME280;42691;47.234;27.494;2023-02-18T08:08:54;99085.47;;;14.60;100.00
56811;BME280;42691;47.234;27.494;2023-02-18T08:11:20;99077.03;;;14.67;100.00
56811;BME280;42691;47.234;27.494;2023-02-18T08:13:47;99072.53;;;14.69;100.00
56811;BME280;42691;47.234;27.494;2023-02-18T08:16:13;99075.50;;;14.76;100.00
56811;BME280;42691;47.234;27.494;2023-02-18T08:18:38;99076.84;;;14.82;100.00
56811;BME280;42691;47.234;27.494;2023-02-18T08:21:04;99068.53;;;14.88;100.00
56811;BME280;42691;47.234;27.494;2023-02-18T08:23:29;99084.84;;;14.91;100.00
56811;BME280;42691;47.234;27.494;2023-02-18T08:25:55;99060.78;;;14.86;100.00
56811;BME280;42691;47.234;27.494;2023-02-18T08:28:22;99060.44;;;14.91;100.00
56811;BME280;42691;47.234;27.494;2023-02-18T08:30:51;99067.25;;;14.93;100.00
56811;BME280;42691;47.234;27.494;2023-02-18T08:33:18;99071.19;;;14.99;100.00
56811;BME280;42691;47.234;27.494;2023-02-18T08:35:44;99066.31;;;15.06;100.00
56811;BME280;42691;47.234;27.494;2023-02-18T08:38:10;99059.88;;;14.98;100.00
56811;BME280;42691;47.234;27.494;2023-02-18T08:40:36;99048.91;;;14.93;100.00
56811;BME280;42691;47.234;27.494;2023-02-18T08:43:01;99067.97;;;15.07;100.00
56811;BME280;42691;47.234;27.494;2023-02-18T08:45:27;99076.53;;;15.09;100.00
56811;BME280;42691;47.234;27.494;2023-02-18T08:47:53;99065.00;;;15.11;100.00
56811;BME280;42691;47.234;27.494;2023-02-18T08:50:18;99068.69;;;15.20;100.00
56811;BME280;42691;47.234;27.494;2023-02-18T08:52:45;99070.34;;;15.21;100.00
56811;BME280;42691;47.234;27.494;2023-02-18T08:55:11;99074.19;;;15.28;100.00
56811;BME280;42691;47.234;27.494;2023-02-18T08:57:37;99073.97;;;15.31;100.00
56811;BME280;42691;47.234;27.494;2023-02-18T09:00:03;99052.63;;;15.36;100.00
56811;BME280;42691;47.234;27.494;2023-02-18T09:02:30;99063.34;;;15.44;100.00
56811;BME280;42691;47.234;27.494;2023-02-18T09:04:55;99056.66;;;15.51;100.00
56811;BME280;42691;47.234;27.494;2023-02-18T09:07:21;99068.59;;;15.55;100.00
56811;BME280;42691;47.234;27.494;2023-02-18T09:09:46;99060.66;;;15.68;100.00
56811;BME280;42691;47.234;27.494;2023-02-18T09:12:11;99043.00;;;15.58;100.00
56811;BME280;42691;47.234;27.494;2023-02-18T09:14:37;99057.78;;;15.71;100.00
56811;BME280;42691;47.234;27.494;2023-02-18T09:17:03;99070.41;;;15.77;100.00
56811;BME280;42691;47.234;27.494;2023-02-18T09:19:28;99067.53;;;15.80;100.00
56811;BME280;42691;47.234;27.494;2023-02-18T09:21:54;99063.50;;;15.76;100.00
56811;BME280;42691;47.234;27.494;2023-02-18T09:24:22;99063.25;;;15.79;100.00
56811;BME280;42691;47.234;27.494;2023-02-18T09:26:49;99059.44;;;15.72;100.00
56811;BME280;42691;47.234;27.494;2023-02-18T09:29:14;99062.03;;;15.83;100.00
56811;BME280;42691;47.234;27.494;2023-02-18T09:31:40;99039.88;;;15.76;100.00
56811;BME280;42691;47.234;27.494;2023-02-18T09:34:06;99061.31;;;15.92;100.00
56811;BME280;42691;47.234;27.494;2023-02-18T09:36:32;99060.34;;;15.93;100.00
56811;BME280;42691;47.234;27.494;2023-02-18T09:38:58;99054.63;;;15.99;100.00
56811;BME280;42691;47.234;27.494;2023-02-18T09:41:40;99054.84;;;16.07;100.00
56811;BME280;42691;47.234;27.494;2023-02-18T09:44:22;99065.81;;;16.12;100.00
56811;BME280;42691;47.234;27.494;2023-02-18T09:47:15;99054.47;;;16.12;100.00
56811;BME280;42691;47.234;27.494;2023-02-18T09:49:57;99053.34;;;16.25;100.00
56811;BME280;42691;47.234;27.494;2023-02-18T09:52:31;99047.59;;;16.32;100.00
56811;BME280;42691;47.234;27.494;2023-02-18T09:54:57;99053.53;;;16.34;100.00
56811;BME280;42691;47.234;27.494;2023-02-18T09:57:45;99044.38;;;16.28;100.00
56811;BME280;42691;47.234;27.494;2023-02-18T10:00:16;99053.53;;;16.34;100.00
56811;BME280;42691;47.234;27.494;2023-02-18T10:02:53;99059.41;;;16.37;100.00
56811;BME280;42691;47.234;27.494;2023-02-18T10:05:20;99054.50;;;16.33;100.00
56811;BME280;42691;47.234;27.494;2023-02-18T10:07:48;99053.53;;;16.45;100.00
56811;BME280;42691;47.234;27.494;2023-02-18T10:12:54;99060.94;;;16.40;100.00
56811;BME280;42691;47.234;27.494;2023-02-18T10:15:22;99062.34;;;16.44;100.00
56811;BME280;42691;47.234;27.494;2023-02-18T10:17:49;99060.47;;;16.35;100.00
56811;BME280;42691;47.234;27.494;2023-02-18T10:20:20;99054.94;;;16.49;100.00
56811;BME280;42691;47.234;27.494;2023-02-18T10:22:49;99056.59;;;16.50;100.00
56811;BME280;42691;47.234;27.494;2023-02-18T10:25:18;99059.16;;;16.61;100.00
56811;BME280;42691;47.234;27.494;2023-02-18T10:27:45;99060.56;;;16.65;100.00
56811;BME280;42691;47.234;27.494;2023-02-18T10:30:29;99054.34;;;16.77;100.00
56811;BME280;42691;47.234;27.494;2023-02-18T10:35:53;99044.16;;;16.84;100.00
56811;BME280;42691;47.234;27.494;2023-02-18T10:52:08;99045.88;;;16.95;100.00
56811;BME280;42691;47.234;27.494;2023-02-18T10:54:59;99055.56;;;16.94;100.00
56811;BME280;42691;47.234;27.494;2023-02-18T10:57:25;99051.41;;;16.92;100.00
56811;BME280;42691;47.234;27.494;2023-02-18T11:02:39;99045.34;;;17.01;100.00
56811;BME280;42691;47.234;27.494;2023-02-18T11:05:31;99032.91;;;17.03;100.00
56811;BME280;42691;47.234;27.494;2023-02-18T11:07:59;99032.16;;;17.12;100.00
56811;BME280;42691;47.234;27.494;2023-02-18T11:10:32;99037.66;;;17.09;100.00
56811;BME280;42691;47.234;27.494;2023-02-18T11:13:04;99032.09;;;17.02;98.41
56811;BME280;42691;47.234;27.494;2023-02-18T11:15:31;99029.59;;;17.01;99.94
56811;BME280;42691;47.234;27.494;2023-02-18T11:18:11;99029.53;;;16.91;99.18
56811;BME280;42691;47.234;27.494;2023-02-18T11:20:38;99025.44;;;16.98;100.00
56811;BME280;42691;47.234;27.494;2023-02-18T11:25:38;99009.41;;;17.01;100.00
56811;BME280;42691;47.234;27.494;2023-02-18T11:30:38;99001.38;;;17.03;100.00
56811;BME280;42691;47.234;27.494;2023-02-18T11:33:23;99002.56;;;16.68;98.86
56811;BME280;42691;47.234;27.494;2023-02-18T11:35:55;98999.63;;;16.82;100.00
56811;BME280;42691;47.234;27.494;2023-02-18T11:38:28;99004.63;;;16.85;98.33
56811;BME280;42691;47.234;27.494;2023-02-18T11:41:09;99000.13;;;16.97;98.65
56811;BME280;42691;47.234;27.494;2023-02-18T11:43:35;99006.06;;;16.99;97.90
56811;BME280;42691;47.234;27.494;2023-02-18T11:46:23;99011.53;;;16.86;97.03
56811;BME280;42691;47.234;27.494;2023-02-18T11:48:49;99001.88;;;16.87;94.45
56811;BME280;42691;47.234;27.494;2023-02-18T11:51:24;98993.59;;;16.92;95.81
56811;BME280;42691;47.234;27.494;2023-02-18T11:54:02;99003.28;;;16.91;86.18
56811;BME280;42691;47.234;27.494;2023-02-18T11:56:33;98991.28;;;16.98;84.19
56811;BME280;42691;47.234;27.494;2023-02-18T11:59:00;98997.72;;;17.15;83.29
56811;BME280;42691;47.234;27.494;2023-02-18T12:04:23;98997.53;;;17.07;74.83
56811;BME280;42691;47.234;27.494;2023-02-18T12:07:07;98996.75;;;17.16;72.77
56811;BME280;42691;47.234;27.494;2023-02-18T12:09:43;98973.69;;;17.29;74.12
56811;BME280;42691;47.234;27.494;2023-02-18T12:12:15;98969.69;;;17.35;72.01
56811;BME280;42691;47.234;27.494;2023-02-18T12:14:42;98981.91;;;17.45;73.10
56811;BME280;42691;47.234;27.494;2023-02-18T12:22:44;98947.03;;;17.43;68.79
56811;BME280;42691;47.234;27.494;2023-02-18T12:37:01;98943.13;;;17.28;64.05
56811;BME280;42691;47.234;27.494;2023-02-18T12:39:44;98959.22;;;17.44;62.73
56811;BME280;42691;47.234;27.494;2023-02-18T13:04:22;98966.78;;;17.68;50.85
56811;BME280;42691;47.234;27.494;2023-02-18T13:14:52;98958.88;;;17.68;48.29
56811;BME280;42691;47.234;27.494;2023-02-18T13:17:23;98957.09;;;17.69;49.63
56811;BME280;42691;47.234;27.494;2023-02-18T13:19:54;98948.22;;;17.70;50.80
56811;BME280;42691;47.234;27.494;2023-02-18T13:22:23;98949.75;;;17.72;49.17
56811;BME280;42691;47.234;27.494;2023-02-18T13:24:50;98950.16;;;17.77;48.98
56811;BME280;42691;47.234;27.494;2023-02-18T13:33:35;98950.03;;;17.79;48.95
56811;BME280;42691;47.234;27.494;2023-02-18T13:41:26;98963.31;;;17.77;48.85
56811;BME280;42691;47.234;27.494;2023-02-18T13:43:52;98970.94;;;17.80;49.32
56811;BME280;42691;47.234;27.494;2023-02-18T13:46:20;98962.91;;;17.72;47.41
56811;BME280;42691;47.234;27.494;2023-02-18T13:48:53;98964.16;;;17.78;49.06
56811;BME280;42691;47.234;27.494;2023-02-18T13:54:43;98967.50;;;17.90;51.47
56811;BME280;42691;47.234;27.494;2023-02-18T13:56:52;98970.00;;;18.01;53.36
56811;BME280;42691;47.234;27.494;2023-02-18T13:59:34;98965.44;;;18.03;52.70
56811;BME280;42691;47.234;27.494;2023-02-18T14:02:36;98964.03;;;17.99;50.58
56811;BME280;42691;47.234;27.494;2023-02-18T14:05:22;98952.41;;;17.92;47.37
56811;BME280;42691;47.234;27.494;2023-02-18T14:13:40;98950.75;;;17.91;48.01
56811;BME280;42691;47.234;27.494;2023-02-18T14:16:07;98953.53;;;17.89;46.75
56811;BME280;42691;47.234;27.494;2023-02-18T14:18:56;98955.97;;;17.81;44.90
56811;BME280;42691;47.234;27.494;2023-02-18T14:21:35;98953.34;;;17.81;45.07
56811;BME280;42691;47.234;27.494;2023-02-18T14:24:09;98944.94;;;17.87;46.33
56811;BME280;42691;47.234;27.494;2023-02-18T14:26:42;98945.91;;;17.86;44.81
56811;BME280;42691;47.234;27.494;2023-02-18T14:29:17;98948.53;;;17.86;44.03
56811;BME280;42691;47.234;27.494;2023-02-18T14:31:47;98952.38;;;17.82;43.76
56811;BME280;42691;47.234;27.494;2023-02-18T14:34:26;98953.94;;;17.85;43.04
56811;BME280;42691;47.234;27.494;2023-02-18T14:47:43;98938.66;;;17.69;40.60
56811;BME280;42691;47.234;27.494;2023-02-18T14:50:17;98946.44;;;17.70;42.38
56811;BME280;42691;47.234;27.494;2023-02-18T14:52:53;98933.66;;;17.66;40.83
56811;BME280;42691;47.234;27.494;2023-02-18T14:55:26;98926.72;;;17.65;40.86
56811;BME280;42691;47.234;27.494;2023-02-18T14:57:58;98934.63;;;17.65;39.40
56811;BME280;42691;47.234;27.494;2023-02-18T15:00:27;98935.72;;;17.62;39.81
56811;BME280;42691;47.234;27.494;2023-02-18T15:02:57;98942.94;;;17.60;40.38
56811;BME280;42691;47.234;27.494;2023-02-18T15:05:29;98945.69;;;17.59;40.87
56811;BME280;42691;47.234;27.494;2023-02-18T15:07:59;98949.28;;;17.58;40.21
56811;BME280;42691;47.234;27.494;2023-02-18T15:13:16;98938.63;;;17.49;39.62
56811;BME280;42691;47.234;27.494;2023-02-18T15:15:44;98943.88;;;17.49;39.27
56811;BME280;42691;47.234;27.494;2023-02-18T15:18:22;98946.50;;;17.49;39.03
56811;BME280;42691;47.234;27.494;2023-02-18T15:20:49;98927.22;;;17.39;39.98